createdAt,value
2019-02-08T00:00:45.454Z,8.50
2019-02-08T00:03:32.435Z,8.50
2019-02-08T00:06:19.314Z,8.50
2019-02-08T00:09:05.654Z,8.50
2019-02-08T00:11:52.408Z,8.40
2019-02-08T00:14:39.269Z,8.40
2019-02-08T00:17:26.135Z,8.40
2019-02-08T00:20:13.262Z,8.40
2019-02-08T00:23:00.346Z,8.40
2019-02-08T00:25:47.210Z,8.40
2019-02-08T00:28:33.971Z,8.50
2019-02-08T00:31:20.341Z,8.30
2019-02-08T00:34:07.496Z,8.30
2019-02-08T00:36:54.419Z,8.20
2019-02-08T00:39:41.532Z,8.20
2019-02-08T00:42:28.679Z,8.10
2019-02-08T00:45:15.455Z,8.10
2019-02-08T00:48:02.600Z,8.10
2019-02-08T00:50:49.797Z,8.10
2019-02-08T00:53:37.169Z,8.10
2019-02-08T00:56:23.852Z,8.00
2019-02-08T00:59:10.863Z,8.10
2019-02-08T01:01:57.584Z,8.10
2019-02-08T01:04:44.712Z,8.10
2019-02-08T01:07:31.336Z,8.20
2019-02-08T01:10:18.119Z,8.20
2019-02-08T01:13:04.340Z,8.10
2019-02-08T01:15:51.049Z,8.10
2019-02-08T01:18:37.992Z,8.20
2019-02-08T01:21:24.735Z,8.10
2019-02-08T01:24:11.023Z,8.10
2019-02-08T01:26:57.884Z,8.10
2019-02-08T01:29:44.836Z,8.10
2019-02-08T01:32:31.427Z,8.20
2019-02-08T01:35:17.422Z,8.20
2019-02-08T01:38:11.447Z,8.10
2019-02-08T01:40:58.238Z,8.20
2019-02-08T01:43:45.418Z,8.20
2019-02-08T01:46:32.380Z,8.10
2019-02-08T01:49:18.711Z,8.10
2019-02-08T01:52:05.451Z,8.20
2019-02-08T01:54:51.829Z,8.20
2019-02-08T01:57:38.847Z,8.20
2019-02-08T02:00:25.923Z,8.20
2019-02-08T02:03:13.195Z,8.30
2019-02-08T02:05:59.806Z,8.20
2019-02-08T02:08:46.784Z,8.20
2019-02-08T02:11:33.162Z,8.20
2019-02-08T02:14:19.800Z,8.20
2019-02-08T02:17:06.908Z,8.30
2019-02-08T02:19:54.044Z,8.30
2019-02-08T02:22:40.915Z,8.20
2019-02-08T02:25:27.168Z,8.20
2019-02-08T02:28:14.211Z,8.30
2019-02-08T02:31:01.207Z,8.30
2019-02-08T02:33:47.624Z,8.30
2019-02-08T02:36:34.585Z,8.30
2019-02-08T02:39:21.328Z,8.40
2019-02-08T02:42:07.609Z,8.30
2019-02-08T02:44:54.390Z,8.30
2019-02-08T02:47:41.532Z,8.30
2019-02-08T02:50:28.166Z,8.30
2019-02-08T02:53:14.582Z,8.40
2019-02-08T02:56:01.287Z,8.40
2019-02-08T02:58:48.357Z,8.40
2019-02-08T03:01:35.111Z,8.30
2019-02-08T03:04:22.248Z,8.30
2019-02-08T03:07:09.036Z,8.20
2019-02-08T03:09:55.807Z,8.20
2019-02-08T03:12:42.680Z,8.20
2019-02-08T03:15:29.176Z,8.20
2019-02-08T03:18:16.076Z,8.20
2019-02-08T03:21:02.791Z,8.30
2019-02-08T03:23:49.722Z,8.30
2019-02-08T03:26:36.585Z,8.20
2019-02-08T03:29:23.641Z,8.20
2019-02-08T03:32:10.297Z,8.20
2019-02-08T03:34:57.169Z,8.30
2019-02-08T03:37:43.611Z,8.20
2019-02-08T03:40:30.181Z,8.20
2019-02-08T03:43:16.536Z,8.20
2019-02-08T03:46:03.334Z,8.10
2019-02-08T03:48:49.675Z,8.20
2019-02-08T03:51:36.440Z,8.10
2019-02-08T03:54:23.294Z,8.20
2019-02-08T03:57:10.431Z,8.10
2019-02-08T03:59:57.375Z,8.20
2019-02-08T04:02:44.341Z,8.20
2019-02-08T04:05:31.106Z,8.20
2019-02-08T04:08:17.932Z,8.20
2019-02-08T04:11:04.834Z,8.20
2019-02-08T04:13:51.379Z,8.20
2019-02-08T04:16:38.463Z,8.10
2019-02-08T04:19:24.828Z,8.10
2019-02-08T04:22:12.011Z,8.10
2019-02-08T04:24:59.243Z,8.10
2019-02-08T04:27:46.047Z,8.10
2019-02-08T04:30:32.818Z,8.20
2019-02-08T04:33:19.638Z,8.10
2019-02-08T04:36:06.635Z,8.10
2019-02-08T04:38:53.183Z,8.10
2019-02-08T04:41:39.940Z,8.10
2019-02-08T04:44:26.329Z,8.00
2019-02-08T04:47:12.636Z,8.00
2019-02-08T04:49:59.676Z,8.00
2019-02-08T04:52:46.127Z,8.00
2019-02-08T04:55:32.549Z,8.00
2019-02-08T04:58:18.931Z,8.00
2019-02-08T05:01:05.163Z,8.00
2019-02-08T05:03:51.445Z,8.00
2019-02-08T05:06:38.183Z,8.00
2019-02-08T05:09:24.972Z,8.00
2019-02-08T05:12:11.136Z,8.00
2019-02-08T05:14:58.308Z,8.00
2019-02-08T05:17:44.685Z,8.00
2019-02-08T05:20:31.410Z,7.90
2019-02-08T05:23:18.399Z,7.90
2019-02-08T05:26:05.122Z,7.90
2019-02-08T05:28:52.086Z,8.00
2019-02-08T05:31:39.135Z,7.90
2019-02-08T05:34:26.123Z,7.90
2019-02-08T05:37:12.716Z,7.90
2019-02-08T05:39:59.929Z,7.90
2019-02-08T05:42:46.461Z,7.90
2019-02-08T05:45:33.144Z,8.00
2019-02-08T05:48:20.273Z,8.00
2019-02-08T05:51:06.685Z,7.90
2019-02-08T05:53:53.003Z,8.00
2019-02-08T05:56:39.765Z,8.00
2019-02-08T05:59:26.807Z,7.90
2019-02-08T06:02:13.406Z,8.00
2019-02-08T06:05:00.395Z,7.90
2019-02-08T06:07:46.913Z,8.10
2019-02-08T06:10:21.718Z,8.10
2019-02-08T06:13:15.720Z,8.20
2019-02-08T06:16:02.308Z,8.20
2019-02-08T06:18:49.704Z,8.20
2019-02-08T06:21:36.631Z,8.20
2019-02-08T06:24:23.529Z,8.10
2019-02-08T06:27:10.379Z,8.10
2019-02-08T06:29:56.671Z,8.10
2019-02-08T06:32:41.763Z,8.20
2019-02-08T06:35:35.764Z,8.20
2019-02-08T06:38:22.213Z,8.20
2019-02-08T06:41:09.080Z,8.20
2019-02-08T06:43:56.054Z,8.10
2019-02-08T06:46:42.713Z,8.20
2019-02-08T06:49:29.795Z,8.10
2019-02-08T06:52:16.693Z,8.00
2019-02-08T06:55:10.629Z,8.10
2019-02-08T06:58:16.955Z,8.10
2019-02-08T07:01:22.673Z,8.10
2019-02-08T07:04:28.449Z,8.10
2019-02-08T07:07:24.899Z,8.00
2019-02-08T07:10:21.473Z,8.00
2019-02-08T07:13:18.735Z,8.10
2019-02-08T07:16:27.506Z,8.00
2019-02-08T07:19:21.311Z,8.00
2019-02-08T07:22:13.771Z,8.10
2019-02-08T07:25:10.303Z,8.00
2019-02-08T07:28:11.219Z,8.00
2019-02-08T07:31:24.303Z,8.10
2019-02-08T07:34:30.516Z,8.00
2019-02-08T07:37:35.848Z,8.00
2019-02-08T07:40:41.656Z,8.00
2019-02-08T07:43:46.244Z,8.10
2019-02-08T07:46:38.089Z,8.20
2019-02-08T07:49:43.551Z,8.10
2019-02-08T07:52:46.715Z,8.10
2019-02-08T07:55:58.168Z,8.20
2019-02-08T07:59:03.541Z,8.20
2019-02-08T08:02:09.325Z,8.20
2019-02-08T08:05:05.332Z,8.30
2019-02-08T08:08:00.632Z,8.40
2019-02-08T08:10:56.180Z,8.40
2019-02-08T08:13:56.086Z,8.30
2019-02-08T08:16:54.579Z,8.40
2019-02-08T08:19:53.662Z,8.40
2019-02-08T08:22:59.479Z,8.50
2019-02-08T08:26:05.424Z,8.50
2019-02-08T08:29:11.372Z,8.50
2019-02-08T08:32:17.004Z,8.50
2019-02-08T08:35:03.811Z,8.50
2019-02-08T08:37:50.850Z,8.50
2019-02-08T08:40:38.136Z,8.60
2019-02-08T08:43:24.664Z,8.60
2019-02-08T08:46:11.361Z,8.60
2019-02-08T08:48:58.451Z,8.60
2019-02-08T08:51:45.488Z,8.60
2019-02-08T08:54:31.929Z,8.60
2019-02-08T08:57:18.367Z,8.60
2019-02-08T09:00:06.424Z,8.70
2019-02-08T09:02:53.424Z,8.90
2019-02-08T09:05:39.921Z,9.00
2019-02-08T09:08:26.374Z,9.00
2019-02-08T09:11:12.939Z,9.10
2019-02-08T09:13:59.388Z,9.00
2019-02-08T09:16:46.331Z,9.10
2019-02-08T09:19:33.032Z,9.10
2019-02-08T09:22:19.623Z,9.30
2019-02-08T09:25:05.855Z,9.30
2019-02-08T09:27:53.003Z,9.40
2019-02-08T09:30:39.619Z,9.50
2019-02-08T09:33:26.788Z,9.60
2019-02-08T09:36:13.919Z,9.60
2019-02-08T09:39:01.023Z,9.70
2019-02-08T09:41:48.554Z,9.70
2019-02-08T09:44:35.579Z,9.80
2019-02-08T09:47:21.799Z,9.80
2019-02-08T09:50:08.617Z,9.80
2019-02-08T09:52:54.943Z,9.80
2019-02-08T09:55:41.689Z,9.90
2019-02-08T09:58:28.696Z,10.00
2019-02-08T10:01:15.508Z,10.10
2019-02-08T10:04:02.617Z,10.20
2019-02-08T10:06:49.071Z,10.20
2019-02-08T10:09:35.650Z,10.20
2019-02-08T10:12:22.465Z,10.20
2019-02-08T10:15:09.475Z,10.30
2019-02-08T10:17:56.318Z,10.20
2019-02-08T10:20:42.915Z,10.30
2019-02-08T10:23:29.112Z,10.30
2019-02-08T10:26:15.984Z,10.30
2019-02-08T10:29:02.264Z,10.50
2019-02-08T10:31:48.878Z,10.50
2019-02-08T10:34:35.244Z,10.60
2019-02-08T10:37:21.847Z,10.60
2019-02-08T10:40:08.667Z,10.70
2019-02-08T10:42:55.285Z,10.70
2019-02-08T10:45:42.215Z,10.80
2019-02-08T10:48:28.687Z,10.80
2019-02-08T10:51:15.221Z,10.80
2019-02-08T10:54:01.464Z,11.00
2019-02-08T10:56:48.503Z,11.10
2019-02-08T10:59:35.128Z,11.20
2019-02-08T11:02:21.556Z,11.20
2019-02-08T11:05:08.331Z,11.20
2019-02-08T11:07:54.944Z,11.20
2019-02-08T11:10:41.255Z,11.20
2019-02-08T11:13:28.281Z,11.30
2019-02-08T11:16:16.396Z,11.40
2019-02-08T11:19:03.283Z,11.30
2019-02-08T11:21:49.903Z,11.40
2019-02-08T11:24:36.838Z,11.40
2019-02-08T11:27:23.727Z,11.40
2019-02-08T11:30:10.678Z,11.30
2019-02-08T11:32:57.534Z,11.30
2019-02-08T11:35:44.223Z,11.40
2019-02-08T11:38:31.438Z,11.40
2019-02-08T11:41:18.149Z,11.50
2019-02-08T11:44:05.272Z,11.40
2019-02-08T11:46:53.367Z,11.40
2019-02-08T11:49:40.276Z,11.40
2019-02-08T11:52:27.248Z,11.40
2019-02-08T11:55:14.155Z,11.30
2019-02-08T11:58:01.118Z,11.40
2019-02-08T12:00:50.875Z,11.50
2019-02-08T12:13:56.322Z,11.40
2019-02-08T12:16:43.112Z,11.30
2019-02-08T12:19:30.373Z,11.40
2019-02-08T12:22:17.053Z,11.40
2019-02-08T12:25:03.652Z,11.40
2019-02-08T12:27:50.763Z,11.40
2019-02-08T12:30:36.974Z,11.50
2019-02-08T12:33:24.092Z,11.60
2019-02-08T12:36:10.428Z,11.60
2019-02-08T12:38:55.504Z,11.70
2019-02-08T12:41:49.459Z,11.70
2019-02-08T12:44:36.604Z,11.70
2019-02-08T12:47:23.564Z,11.50
2019-02-08T12:50:09.909Z,11.60
2019-02-08T12:52:56.992Z,11.40
2019-02-08T12:55:43.752Z,11.50
2019-02-08T12:58:30.539Z,11.60
2019-02-08T13:01:16.992Z,11.60
2019-02-08T13:04:03.524Z,11.70
2019-02-08T13:06:50.283Z,11.60
2019-02-08T13:09:37.335Z,11.60
2019-02-08T13:12:24.507Z,11.60
2019-02-08T13:15:11.646Z,11.60
2019-02-08T13:17:57.902Z,11.70
2019-02-08T13:20:44.803Z,11.80
2019-02-08T13:23:31.628Z,11.90
2019-02-08T13:26:18.248Z,11.90
2019-02-08T13:29:05.432Z,12.00
2019-02-08T13:31:52.079Z,11.90
2019-02-08T13:34:39.188Z,11.90
2019-02-08T13:37:26.008Z,11.90
2019-02-08T13:40:12.251Z,12.00
2019-02-08T13:42:59.082Z,12.00
2019-02-08T13:45:45.723Z,12.00
2019-02-08T13:48:32.292Z,12.00
2019-02-08T13:51:18.676Z,12.30
2019-02-08T13:54:05.169Z,12.10
2019-02-08T13:56:51.592Z,12.00
2019-02-08T13:59:38.555Z,12.00
2019-02-08T14:02:24.914Z,12.10
2019-02-08T14:05:11.223Z,12.00
2019-02-08T14:07:58.218Z,11.90
2019-02-08T14:10:44.805Z,11.90
2019-02-08T14:13:31.868Z,11.90
2019-02-08T14:16:19.076Z,11.90
2019-02-08T14:19:05.990Z,11.80
2019-02-08T14:21:52.745Z,11.80
2019-02-08T14:24:39.269Z,11.80
2019-02-08T14:27:26.120Z,11.80
2019-02-08T14:30:13.120Z,11.80
2019-02-08T14:33:00.047Z,11.80
2019-02-08T14:35:46.648Z,11.70
2019-02-08T14:38:32.954Z,11.70
2019-02-08T14:41:20.380Z,11.80
2019-02-08T14:44:07.485Z,11.90
2019-02-08T14:46:54.229Z,11.90
2019-02-08T14:49:41.175Z,11.90
2019-02-08T14:52:27.662Z,12.00
2019-02-08T14:55:14.561Z,11.80
2019-02-08T14:58:01.501Z,11.90
2019-02-08T15:00:47.984Z,11.80
2019-02-08T15:03:22.822Z,11.90
2019-02-08T15:06:16.767Z,11.80
2019-02-08T15:09:04.470Z,11.70
2019-02-08T15:11:51.731Z,11.70
2019-02-08T15:14:38.311Z,11.70
2019-02-08T15:17:25.153Z,11.60
2019-02-08T15:20:12.126Z,11.70
2019-02-08T15:22:58.871Z,11.80
2019-02-08T15:25:45.392Z,11.70
2019-02-08T15:28:32.239Z,11.70
2019-02-08T15:31:18.771Z,11.60
2019-02-08T15:34:05.229Z,11.60
2019-02-08T15:36:51.827Z,11.60
2019-02-08T15:39:38.629Z,11.70
2019-02-08T15:42:25.793Z,11.60
2019-02-08T15:45:12.036Z,11.70
2019-02-08T15:47:59.135Z,11.70
2019-02-08T15:50:46.256Z,11.60
2019-02-08T15:53:33.199Z,11.60
2019-02-08T15:56:20.043Z,11.50
2019-02-08T15:59:06.327Z,11.60
2019-02-08T16:01:53.133Z,11.60
2019-02-08T16:04:40.320Z,11.70
2019-02-08T16:07:27.088Z,11.60
2019-02-08T16:10:14.055Z,11.60
2019-02-08T16:13:01.108Z,11.60
2019-02-08T16:15:47.363Z,11.50
2019-02-08T16:18:33.631Z,11.50
2019-02-08T16:21:20.363Z,11.50
2019-02-08T16:24:06.693Z,11.40
2019-02-08T16:26:53.214Z,11.40
2019-02-08T16:29:28.176Z,11.30
2019-02-08T16:32:22.280Z,11.40
2019-02-08T16:35:09.377Z,11.40
2019-02-08T16:37:57.172Z,11.40
2019-02-08T16:40:44.008Z,11.30
2019-02-08T16:43:30.684Z,11.10
2019-02-08T16:46:17.748Z,11.10
2019-02-08T16:49:04.748Z,11.10
2019-02-08T16:51:51.668Z,11.00
2019-02-08T16:54:37.980Z,10.90
2019-02-08T16:57:24.855Z,11.00
2019-02-08T17:00:11.775Z,10.90
2019-02-08T17:02:58.008Z,10.90
2019-02-08T17:05:44.627Z,10.90
2019-02-08T17:08:31.699Z,10.80
2019-02-08T17:11:18.480Z,10.70
2019-02-08T17:14:04.759Z,10.60
2019-02-08T17:16:51.514Z,10.70
2019-02-08T17:19:26.502Z,10.60
2019-02-08T17:22:20.507Z,10.50
2019-02-08T17:25:07.372Z,10.50
2019-02-08T17:27:55.496Z,10.60
2019-02-08T17:30:42.809Z,10.50
2019-02-08T17:33:30.637Z,10.50
2019-02-08T17:36:17.531Z,10.60
2019-02-08T17:39:04.939Z,10.50
2019-02-08T17:41:53.586Z,10.40
2019-02-08T17:44:40.532Z,10.40
2019-02-08T17:47:27.028Z,10.40
2019-02-08T17:50:14.244Z,10.30
2019-02-08T17:53:01.221Z,10.40
2019-02-08T17:55:48.399Z,10.40
2019-02-08T17:58:35.232Z,10.50
2019-02-08T18:01:21.780Z,10.50
2019-02-08T18:04:08.748Z,10.50
2019-02-08T18:06:55.524Z,10.40
2019-02-08T18:09:41.981Z,10.40
2019-02-08T18:12:32.522Z,10.40
2019-02-08T18:15:08.359Z,10.50
2019-02-08T18:18:02.512Z,10.40
2019-02-08T18:20:49.310Z,10.40
2019-02-08T18:23:35.699Z,10.40
2019-02-08T18:26:23.260Z,10.40
2019-02-08T18:29:10.529Z,10.40
2019-02-08T18:31:56.847Z,10.40
2019-02-08T18:34:43.988Z,10.40
2019-02-08T18:37:30.775Z,10.40
2019-02-08T18:40:18.705Z,10.40
2019-02-08T18:43:05.819Z,10.40
2019-02-08T18:45:52.368Z,10.30
2019-02-08T18:48:39.291Z,10.40
2019-02-08T18:51:26.457Z,10.30
2019-02-08T18:54:12.825Z,10.30
2019-02-08T18:56:59.767Z,10.30
2019-02-08T18:59:46.878Z,10.20
2019-02-08T19:02:33.489Z,10.20
2019-02-08T19:05:20.452Z,10.20
2019-02-08T19:08:07.083Z,10.20
2019-02-08T19:10:53.403Z,10.20
2019-02-08T19:13:40.642Z,10.30
2019-02-08T19:16:27.551Z,10.20
2019-02-08T19:19:14.571Z,10.30
2019-02-08T19:22:01.144Z,10.20
2019-02-08T19:24:48.005Z,10.30
2019-02-08T19:27:34.710Z,10.30
2019-02-08T19:30:21.845Z,10.30
2019-02-08T19:33:09.014Z,10.30
2019-02-08T19:35:55.622Z,10.40
2019-02-08T19:38:42.508Z,10.30
2019-02-08T19:41:29.185Z,10.30
2019-02-08T19:44:15.924Z,10.30
2019-02-08T19:47:03.137Z,10.30
2019-02-08T19:49:49.464Z,10.30
2019-02-08T19:52:36.007Z,10.30
2019-02-08T19:55:23.178Z,10.30
2019-02-08T19:58:10.072Z,10.20
2019-02-08T20:00:56.699Z,10.30
2019-02-08T20:03:43.042Z,10.20
2019-02-08T20:06:31.237Z,10.20
2019-02-08T20:09:18.440Z,10.10
2019-02-08T20:12:05.491Z,10.20
2019-02-08T20:14:52.463Z,10.20
2019-02-08T20:17:38.796Z,10.20
2019-02-08T20:20:25.503Z,10.20
2019-02-08T20:23:12.680Z,10.20
2019-02-08T20:25:59.536Z,10.20
2019-02-08T20:28:46.661Z,10.20
2019-02-08T20:31:33.379Z,10.20
2019-02-08T20:34:20.411Z,10.20
2019-02-08T20:37:07.574Z,10.20
2019-02-08T20:39:54.585Z,10.20
2019-02-08T20:42:41.317Z,10.20
2019-02-08T20:45:27.812Z,10.30
2019-02-08T20:48:14.612Z,10.20
2019-02-08T20:51:01.503Z,10.20
2019-02-08T20:53:47.887Z,10.20
2019-02-08T20:56:34.218Z,10.10
2019-02-08T20:59:20.847Z,10.10
2019-02-08T21:02:07.939Z,10.20
2019-02-08T21:04:54.378Z,10.20
2019-02-08T21:07:40.871Z,10.20
2019-02-08T21:10:27.724Z,10.20
2019-02-08T21:13:15.053Z,10.20
2019-02-08T21:16:03.018Z,10.20
2019-02-08T21:18:49.974Z,10.30
2019-02-08T21:21:36.924Z,10.30
2019-02-08T21:24:23.212Z,10.30
2019-02-08T21:27:09.863Z,10.30
2019-02-08T21:29:56.984Z,10.20
2019-02-08T21:32:43.873Z,10.20
2019-02-08T21:35:30.725Z,10.20
2019-02-08T21:38:17.727Z,10.20
2019-02-08T21:41:04.043Z,10.20
2019-02-08T21:43:51.026Z,10.20
2019-02-08T21:46:37.420Z,10.20
2019-02-08T21:49:23.933Z,10.10
2019-02-08T21:52:10.507Z,10.10
2019-02-08T21:54:56.714Z,10.20
2019-02-08T21:57:43.702Z,10.10
2019-02-08T22:00:31.097Z,10.10
2019-02-08T22:03:17.697Z,10.20
2019-02-08T22:06:04.696Z,10.10
2019-02-08T22:08:51.323Z,10.10
2019-02-08T22:11:37.956Z,10.10
2019-02-08T22:14:24.265Z,10.00
2019-02-08T22:17:11.044Z,10.00
2019-02-08T22:19:58.159Z,10.00
2019-02-08T22:22:44.746Z,9.90
2019-02-08T22:25:31.644Z,10.00
2019-02-08T22:28:18.767Z,9.90
2019-02-08T22:31:05.592Z,10.00
2019-02-08T22:33:52.611Z,10.00
2019-02-08T22:36:38.918Z,10.00
2019-02-08T22:39:25.927Z,10.00
2019-02-08T22:42:12.355Z,9.90
2019-02-08T22:45:08.403Z,9.90
2019-02-08T22:47:49.076Z,9.90
2019-02-08T22:50:35.703Z,9.90
2019-02-08T22:53:22.830Z,9.90
2019-02-08T22:56:09.933Z,9.90
2019-02-08T22:58:56.508Z,9.90
2019-02-08T23:01:43.036Z,9.90
2019-02-08T23:04:30.503Z,9.90
2019-02-08T23:07:17.704Z,9.90
2019-02-08T23:10:04.543Z,10.00
2019-02-08T23:12:51.347Z,10.00
2019-02-08T23:15:39.239Z,9.90
2019-02-08T23:18:26.337Z,9.90
2019-02-08T23:21:13.423Z,9.90
2019-02-08T23:24:00.541Z,10.00
2019-02-08T23:26:47.191Z,10.00
2019-02-08T23:29:34.328Z,10.00
2019-02-08T23:32:21.363Z,10.00
2019-02-08T23:35:08.470Z,10.10
2019-02-08T23:37:54.883Z,10.10
2019-02-08T23:40:41.177Z,10.00
2019-02-08T23:43:28.296Z,10.10
2019-02-08T23:46:15.270Z,10.10
2019-02-08T23:49:21.130Z,10.10
2019-02-08T23:52:08.130Z,10.20
2019-02-08T23:54:55.868Z,10.20
2019-02-08T23:57:42.766Z,10.30
